Station APNM4 - Alpena Harbor Light, Alpena, MI Image indicating link to RSS feed of recent meteorological observations for station APNM4


Conditions at APNM4 as of
(6:40 pm EDT)
2240 GMT on 05/19/2024:
     

Click on the graph icon in the table below to see a time series plot of the last five days of that observation.

5-day plot - Wind Direction Wind Direction (WDIR): N ( 360 deg true )
5-day plot - Wind Speed Wind Speed (WSPD):5.1 m/s
5-day plot - Wind Gust Wind Gust (GST):8.2 m/s
5-day plot - Air Temperature Air Temperature (ATMP): 22.2 °C
5-day plot -  Wind Speed, Wind Gust and Atmospheric Pressure Combined plot of Wind Speed, Gust, and Air Pressure
Previous observations
TIME
(EDT)
5-day plot - Wind Direction
WDIR
 
5-day plot - Wind Speed
WSPD
m/s
5-day plot - Wind Gust
GST
m/s
5-day plot - Wave Height
WVHT
m
5-day plot - Dominant Wave Period
DPD
sec
5-day plot - Average Wave Period
APD
sec
5-day plot - Mean Wave Direction
MWD
 
5-day plot - Atmospheric Pressure
PRES
mb
5-day plot - Pressure Tendency
PTDY
mb
5-day plot - Air Temperature
ATMP
°C
5-day plot - Water Temperature
WTMP
°C
5-day plot - Dew Point
DEWP
°C
5-day plot - Salinity
SAL
psu
5-day plot - Visibility
VIS
km
5-day plot - Tide (above MLLW)
TIDE
m
2024-05-19 06:30 pm N 6 9------ 22.2-----
2024-05-19 06:20 pm N 5 7------ 22.5-----
2024-05-19 06:10 pm N 6 10------ 22.7-----
2024-05-19 06:00 pm N 8 10------ 22.4-----
2024-05-19 05:50 pm N 6 9------ 22.7-----
2024-05-19 05:40 pm N 5 8------ 23.4-----
2024-05-19 05:30 pm N 6 8------ 23.3-----
2024-05-19 05:20 pm N 6 7------ 23.4-----
2024-05-19 05:10 pm N 4 6------ 23.5-----
2024-05-19 05:00 pm N 6 9------ 23.2-----
2024-05-19 04:50 pm N 6 7------ 23.3-----
2024-05-19 04:40 pm N 5 8------ 23.2-----
2024-05-19 04:30 pm N 5 7------ 23.2-----
2024-05-19 04:20 pm N 5 7------ 23.1-----
2024-05-19 04:10 pm N 4 5------ 23.8-----
2024-05-19 04:00 pmNNE 5 7------ 23.3-----
2024-05-19 03:50 pm N 5 7------ 23.2-----
2024-05-19 03:40 pm N 3 5------ 23.2-----
2024-05-19 03:30 pm N 3 4------ 23.3-----
2024-05-19 03:20 pmNNE 3 5------ 23.7-----
2024-05-19 03:10 pm N 4 5------ 23.8-----
2024-05-19 03:00 pm N 5 7------ 23.7-----
2024-05-19 02:50 pm NW 4 6------ 23.6-----
2024-05-19 02:40 pmNNW 3 4------ 23.6-----
2024-05-19 02:30 pmNNE 2 3------ 23.2-----
2024-05-19 02:20 pmNNW 3 4------ 23.0-----
2024-05-19 02:10 pm NW 4 6------ 22.9-----
2024-05-19 02:00 pmNNW 5 6------ 23.0-----
2024-05-19 01:50 pm N 4 5------ 22.3-----
2024-05-19 01:40 pm NW 4 4------ 22.1-----
2024-05-19 01:30 pmNNW 4 6------ 22.2-----
2024-05-19 01:20 pm N 4 6------ 21.8-----
2024-05-19 01:10 pmNNW 4 6------ 21.9-----
2024-05-19 01:00 pmNNW 4 6------ 21.5-----
2024-05-19 12:50 pm N 5 7------ 21.2-----
2024-05-19 12:40 pmNNW 6 7------ 21.3-----
2024-05-19 12:30 pmNNW 5 7------ 21.2-----
2024-05-19 12:20 pmNNW 6 7------ 21.2-----
2024-05-19 12:10 pm NW 5 7------ 20.9-----
2024-05-19 12:00 pm NW 5 7------ 20.7-----
2024-05-19 11:50 amNNW 3 5------ 20.7-----
2024-05-19 11:40 am NW 5 6------ 20.3-----
2024-05-19 11:30 amNNW 6 7------ 20.2-----
2024-05-19 11:20 amNNW 4 5------ 20.2-----
2024-05-19 11:10 amNNW 6 8------ 20.1-----
2024-05-19 11:00 amNNW 7 9------ 19.9-----
2024-05-19 10:50 amNNW 6 8------ 20.1-----
2024-05-19 10:40 amNNW 5 7------ 20.6-----
2024-05-19 10:30 amNNW 5 7------ 20.7-----
2024-05-19 10:20 amNNW 6 8------ 20.9-----
2024-05-19 10:10 amNNW 5 6------ 21.0-----
2024-05-19 10:00 am NW 5 6------ 20.9-----
2024-05-19 09:50 am NW 3 4------ 20.9-----
2024-05-19 09:40 am NW 5 6------ 20.8-----
2024-05-19 09:30 am NW 4 5------ 20.7-----
2024-05-19 09:20 am NW 7 8------ 21.0-----
2024-05-19 09:10 am NW 7 8------ 21.2-----
2024-05-19 09:00 amWNW 6 7------ 21.1-----
2024-05-19 08:50 am W 6 6------ 21.1-----
2024-05-19 08:40 am W 3 4------ 20.8-----
2024-05-19 08:30 am W 3 4------ 20.4-----
2024-05-19 08:20 am W 3 5------ 20.4-----
2024-05-19 08:10 amWSW 4 5------ 20.2-----
2024-05-19 08:00 amWSW 4 4------ 20.2-----
2024-05-19 07:50 am SW 3 3------ 19.9-----
2024-05-19 07:40 am SW 3 3------ 19.6-----
2024-05-19 07:30 am SW 3 3------ 19.4-----
2024-05-19 07:20 amSSW 3 3------ 18.9-----
2024-05-19 07:10 am SW 4 4------ 18.5-----
2024-05-19 07:00 am SW 3 4------ 18.2-----
2024-05-19 06:50 am SW 3 4------ 18.1-----
2024-05-19 06:40 am SW 3 3------ 17.5-----
2024-05-19 06:30 amWSW 1 2------ 17.4-----
2024-05-19 06:20 am S 3 3------ 16.9-----
2024-05-19 06:10 am S 3 3------ 16.4-----
2024-05-19 06:00 amSSE 3 4------ 16.1-----
2024-05-19 05:50 amSSE 4 4------ 15.8-----
2024-05-19 05:40 amSSE 3 4------ 15.4-----
2024-05-19 05:30 am SE 4 4------ 15.2-----
2024-05-19 05:20 am SE 4 4------ 15.2-----
2024-05-19 05:10 am SE 3 3------ 15.2-----
2024-05-19 05:00 am SE 4 4------ 14.9-----
2024-05-19 04:50 am SE 3 4------ 15.0-----
2024-05-19 04:40 am SE 3 3------ 15.2-----
2024-05-19 04:30 am SE 3 3------ 15.1-----
2024-05-19 04:20 am SE 4 4------ 14.8-----
2024-05-19 04:10 am SE 3 4------ 14.6-----
2024-05-19 04:00 am SE 3 3------ 14.5-----
2024-05-19 03:50 am SE 3 3------ 14.4-----
2024-05-19 03:40 am SE 3 4------ 14.3-----
2024-05-19 03:30 am SE 4 4------ 14.1-----
2024-05-19 03:20 am SE 4 4------ 13.8-----
2024-05-19 03:10 am SE 4 5------ 13.6-----
2024-05-19 03:00 am SE 4 4------ 13.5-----
2024-05-19 02:50 amESE 3 4------ 13.4-----
2024-05-19 02:40 am SE 3 4------ 13.1-----
2024-05-19 02:30 am SE 4 4------ 13.1-----
2024-05-19 02:20 am SE 4 4------ 13.1-----
2024-05-19 02:10 am SE 4 4------ 13.2-----
2024-05-19 02:00 am SE 4 4------ 13.1-----
2024-05-19 01:50 am SE 4 4------ 13.1-----
2024-05-19 01:40 am SE 5 5------ 12.9-----
2024-05-19 01:30 am SE 5 5------ 12.7-----
2024-05-19 01:20 am SE 4 5------ 12.7-----
2024-05-19 01:10 am SE 4 4------ 12.5-----
2024-05-19 01:00 am SE 4 5------ 12.5-----
2024-05-19 12:50 am SE 5 5------ 12.5-----
2024-05-19 12:40 amSSE 5 6------ 12.4-----
2024-05-19 12:30 am SE 6 6------ 12.3-----
2024-05-19 12:20 am SE 6 6------ 12.4-----
2024-05-19 12:10 am SE 6 6------ 12.4-----
2024-05-19 12:00 am SE 6 6------ 12.5-----
2024-05-18 11:50 pm SE 5 6------ 12.5-----
2024-05-18 11:40 pm SE 5 6------ 12.6-----
2024-05-18 11:30 pmSSE 6 6------ 12.7-----
2024-05-18 11:20 pmSSE 6 7------ 12.7-----
2024-05-18 11:10 pmSSE 6 6------ 12.8-----
2024-05-18 11:00 pmSSE 6 7------ 12.7-----
2024-05-18 10:50 pm SE 6 7------ 13.0-----
2024-05-18 10:40 pm SE 6 7------ 13.0-----
2024-05-18 10:30 pm SE 6 7------ 13.2-----
2024-05-18 10:20 pmSSE 7 7------ 13.2-----
2024-05-18 10:10 pm SE 6 7------ 13.1-----
2024-05-18 10:00 pmSSE 6 6------ 13.3-----
2024-05-18 09:50 pm SE 6 7------ 13.3-----
2024-05-18 09:40 pm SE 6 7------ 13.3-----
2024-05-18 09:30 pmSSE 6 6------ 13.2-----
2024-05-18 09:20 pmSSE 5 6------ 13.1-----
2024-05-18 09:10 pmSSE 5 6------ 13.1-----
2024-05-18 09:00 pm SE 5 6------ 12.9-----
2024-05-18 08:50 pm SE 6 7------ 12.6-----
2024-05-18 08:40 pm SE 6 7------ 12.3-----
2024-05-18 08:30 pm SE 6 7------ 12.4-----
2024-05-18 08:20 pm SE 6 7------ 12.1-----
2024-05-18 08:10 pm SE 7 8------ 11.9-----
2024-05-18 08:00 pm SE 7 8------ 11.7-----
2024-05-18 07:50 pm SE 8 9------ 11.7-----
2024-05-18 07:40 pm SE 8 8------ 11.7-----
2024-05-18 07:30 pm SE 8 9------ 11.6-----
2024-05-18 07:20 pm SE 8 9------ 11.8-----
2024-05-18 07:10 pm SE 8 9------ 11.8-----
2024-05-18 07:00 pm SE 8 10------ 12.0-----
2024-05-18 06:50 pm SE 8 10------ 12.2-----